createdAt,value
2023-01-17T00:00:01.577Z,9.93
2023-01-17T00:02:31.298Z,10.71
2023-01-17T00:05:18.412Z,10.68
2023-01-17T00:08:05.795Z,9.04
2023-01-17T00:14:07.738Z,7.54
2023-01-17T00:16:40.338Z,9.33
2023-01-17T00:19:26.839Z,10.29
2023-01-17T00:22:13.367Z,9.74
2023-01-17T00:24:59.826Z,8.23
2023-01-17T00:27:28.064Z,7.54
2023-01-17T00:29:56.297Z,8.84
2023-01-17T00:32:33.199Z,10.11
2023-01-17T00:35:01.688Z,10.38
2023-01-17T00:37:29.996Z,9.02
2023-01-17T00:39:57.823Z,7.71
2023-01-17T00:42:26.047Z,7.13
2023-01-17T00:45:12.649Z,8.40
2023-01-17T00:47:59.128Z,9.80
2023-01-17T00:50:45.715Z,10.58
2023-01-17T00:53:32.281Z,9.92
2023-01-17T00:56:22.951Z,8.29
2023-01-17T00:59:09.607Z,7.02
2023-01-17T01:01:56.316Z,6.74
2023-01-17T01:04:42.922Z,8.51
2023-01-17T01:07:29.877Z,9.89
2023-01-17T01:10:16.439Z,10.46
2023-01-17T01:13:03.032Z,10.27
2023-01-17T01:16:12.189Z,8.64
2023-01-17T01:19:22.201Z,7.02
2023-01-17T01:22:09.588Z,6.88
2023-01-17T01:24:55.979Z,8.83
2023-01-17T01:27:42.604Z,10.15
2023-01-17T01:30:31.683Z,10.30
2023-01-17T01:33:15.189Z,8.76
2023-01-17T01:35:43.675Z,7.49
2023-01-17T01:38:12.001Z,7.10
2023-01-17T01:40:45.164Z,8.66
2023-01-17T01:43:23.107Z,10.10
2023-01-17T01:46:00.021Z,10.39
2023-01-17T01:49:06.043Z,8.96
2023-01-17T01:51:49.220Z,7.46
2023-01-17T01:54:23.704Z,7.10
2023-01-17T01:56:57.945Z,8.87
2023-01-17T02:00:06.351Z,10.35
2023-01-17T02:02:57.756Z,9.85
2023-01-17T02:05:29.400Z,8.36
2023-01-17T02:08:03.212Z,7.38
2023-01-17T02:10:34.727Z,6.67
2023-01-17T02:13:05.997Z,6.61
2023-01-17T02:15:42.052Z,8.39
2023-01-17T02:18:48.132Z,9.91
2023-01-17T02:21:22.823Z,10.12
2023-01-17T02:24:03.214Z,8.66
2023-01-17T02:26:44.906Z,7.32
2023-01-17T02:32:53.299Z,6.71
2023-01-17T02:35:47.374Z,8.86
2023-01-17T02:38:42.524Z,10.15
2023-01-17T02:41:21.149Z,9.06
2023-01-17T02:43:51.206Z,7.59
2023-01-17T02:46:19.509Z,6.57
2023-01-17T02:48:48.923Z,5.80
2023-01-17T02:51:45.203Z,5.67
2023-01-17T02:54:45.189Z,7.82
2023-01-17T03:01:27.112Z,9.10
2023-01-17T03:04:04.118Z,7.07
2023-01-17T03:06:41.474Z,5.80
2023-01-17T03:09:10.665Z,5.40
2023-01-17T03:11:39.037Z,7.02
2023-01-17T03:14:07.405Z,8.38
2023-01-17T03:16:36.337Z,8.70
2023-01-17T03:19:05.169Z,7.47
2023-01-17T03:21:33.666Z,6.23
2023-01-17T03:24:03.210Z,5.34
2023-01-17T03:26:31.838Z,5.10
2023-01-17T03:28:59.779Z,6.63
2023-01-17T03:31:27.755Z,8.10
2023-01-17T03:33:55.732Z,8.58
2023-01-17T03:36:23.799Z,7.46
2023-01-17T03:38:52.282Z,6.18
2023-01-17T03:41:22.188Z,5.25
2023-01-17T03:44:46.500Z,4.99
2023-01-17T03:47:15.092Z,7.19
2023-01-17T03:49:45.376Z,8.38
2023-01-17T03:52:13.748Z,8.76
2023-01-17T03:54:42.037Z,7.53
2023-01-17T03:57:10.723Z,6.19
2023-01-17T03:59:39.243Z,5.20
2023-01-17T04:02:07.475Z,4.91
2023-01-17T04:04:36.112Z,6.35
2023-01-17T04:08:00.500Z,7.70
2023-01-17T04:10:28.624Z,7.90
2023-01-17T04:12:57.330Z,6.41
2023-01-17T04:15:25.664Z,5.17
2023-01-17T04:17:53.774Z,4.62
2023-01-17T04:20:32.264Z,5.96
2023-01-17T04:23:01.161Z,7.37
2023-01-17T04:25:31.337Z,7.78
2023-01-17T04:31:17.455Z,4.63
2023-01-17T04:33:46.019Z,3.69
2023-01-17T04:37:30.008Z,3.50
2023-01-17T04:39:58.405Z,6.17
2023-01-17T04:42:26.753Z,7.38
2023-01-17T04:44:55.195Z,8.20
2023-01-17T04:47:24.459Z,8.33
2023-01-17T04:49:53.681Z,6.84
2023-01-17T04:52:55.067Z,5.39
2023-01-17T04:55:23.719Z,4.19
2023-01-17T04:57:51.939Z,3.88
2023-01-17T05:00:23.907Z,5.34
2023-01-17T05:02:52.360Z,6.80
2023-01-17T05:05:20.890Z,7.64
2023-01-17T05:07:56.515Z,7.87
2023-01-17T05:10:47.241Z,6.58
2023-01-17T05:13:52.216Z,5.07
2023-01-17T05:17:03.414Z,5.06
2023-01-17T05:24:11.793Z,8.61
2023-01-17T05:28:06.145Z,8.29
2023-01-17T05:33:44.433Z,5.82
2023-01-17T05:36:13.682Z,7.38
2023-01-17T05:38:41.936Z,8.54
2023-01-17T05:41:10.739Z,8.86
2023-01-17T05:43:38.964Z,7.54
2023-01-17T05:46:32.337Z,6.24
2023-01-17T05:49:00.866Z,5.21
2023-01-17T05:51:29.562Z,5.07
2023-01-17T05:53:57.685Z,6.76
2023-01-17T05:56:26.162Z,8.23
2023-01-17T05:58:54.144Z,9.03
2023-01-17T06:01:22.275Z,8.94
2023-01-17T06:03:51.161Z,7.66
2023-01-17T06:06:20.608Z,6.46
2023-01-17T06:08:49.141Z,5.59
2023-01-17T06:11:18.728Z,5.37
2023-01-17T06:13:48.863Z,6.96
2023-01-17T06:17:08.317Z,8.35
2023-01-17T06:19:36.903Z,9.35
2023-01-17T06:22:05.551Z,9.36
2023-01-17T06:24:34.091Z,7.90
2023-01-17T06:27:02.407Z,6.55
2023-01-17T06:29:30.558Z,5.61
2023-01-17T06:32:01.463Z,5.39
2023-01-17T06:34:29.928Z,6.98
2023-01-17T06:36:58.151Z,8.43
2023-01-17T06:39:26.950Z,8.92
2023-01-17T06:41:55.206Z,7.81
2023-01-17T06:45:43.305Z,6.59
2023-01-17T06:48:11.441Z,5.41
2023-01-17T06:50:39.457Z,5.28
2023-01-17T06:53:07.813Z,6.63
2023-01-17T06:55:39.594Z,8.06
2023-01-17T06:58:09.484Z,9.09
2023-01-17T07:00:40.302Z,9.42
2023-01-17T07:03:20.580Z,8.14
2023-01-17T07:05:49.333Z,6.87
2023-01-17T07:08:19.372Z,6.07
2023-01-17T07:10:48.491Z,5.91
2023-01-17T07:13:16.751Z,7.60
2023-01-17T07:15:44.689Z,9.26
2023-01-17T07:18:12.614Z,9.69
2023-01-17T07:20:43.935Z,8.34
2023-01-17T07:23:13.000Z,6.91
2023-01-17T07:25:41.032Z,5.93
2023-01-17T07:28:09.192Z,5.66
2023-01-17T07:30:37.285Z,7.31
2023-01-17T07:33:05.567Z,8.92
2023-01-17T07:35:33.628Z,9.52
2023-01-17T07:38:01.698Z,8.27
2023-01-17T07:40:29.796Z,6.94
2023-01-17T07:45:46.372Z,5.85
2023-01-17T07:48:14.257Z,7.64
2023-01-17T07:50:43.003Z,9.11
2023-01-17T07:53:11.479Z,9.63
2023-01-17T07:55:40.100Z,8.46
2023-01-17T07:58:08.171Z,7.23
2023-01-17T08:00:36.146Z,6.37
2023-01-17T08:03:05.850Z,6.13
2023-01-17T08:05:33.842Z,7.64
2023-01-17T08:08:01.723Z,9.15
2023-01-17T08:10:29.733Z,9.72
2023-01-17T08:12:57.633Z,8.45
2023-01-17T08:15:26.733Z,7.14
2023-01-17T08:17:54.739Z,6.67
2023-01-17T08:20:22.656Z,8.23
2023-01-17T08:22:54.559Z,9.70
2023-01-17T08:25:26.762Z,10.15
2023-01-17T08:27:58.836Z,8.77
2023-01-17T08:30:27.480Z,7.44
2023-01-17T08:32:55.775Z,6.56
2023-01-17T08:35:24.126Z,6.36
2023-01-17T08:37:55.058Z,7.96
2023-01-17T08:40:23.954Z,9.35
2023-01-17T08:43:00.286Z,9.82
2023-01-17T08:45:28.708Z,8.49
2023-01-17T08:47:58.839Z,7.31
2023-01-17T08:50:27.309Z,6.46
2023-01-17T08:53:01.091Z,6.29
2023-01-17T08:55:29.435Z,8.11
2023-01-17T08:57:57.441Z,9.71
2023-01-17T09:00:27.228Z,9.04
2023-01-17T09:02:55.219Z,7.75
2023-01-17T09:05:31.268Z,6.80
2023-01-17T09:08:05.033Z,6.56
2023-01-17T09:10:38.754Z,8.27
2023-01-17T09:13:13.747Z,9.87
2023-01-17T09:15:42.109Z,9.88
2023-01-17T09:18:09.990Z,8.53
2023-01-17T09:20:37.987Z,7.39
2023-01-17T09:23:13.501Z,6.53
2023-01-17T09:25:44.742Z,6.41
2023-01-17T09:28:12.785Z,8.14
2023-01-17T09:30:49.353Z,9.82
2023-01-17T09:33:17.911Z,10.04
2023-01-17T09:36:06.899Z,8.72
2023-01-17T09:42:28.109Z,6.65
2023-01-17T09:45:10.458Z,6.75
2023-01-17T09:47:48.985Z,9.10
2023-01-17T09:50:51.221Z,9.46
2023-01-17T09:53:29.281Z,7.77
2023-01-17T09:56:13.242Z,6.88
2023-01-17T10:02:16.774Z,9.01
2023-01-17T10:05:02.911Z,9.78
2023-01-17T10:08:12.089Z,8.27
2023-01-17T10:14:26.683Z,7.49
2023-01-17T10:17:24.404Z,9.47
2023-01-17T10:20:35.239Z,9.62
2023-01-17T10:23:28.101Z,8.15
2023-01-17T10:26:00.092Z,7.23
2023-01-17T10:28:41.980Z,7.14
2023-01-17T10:31:25.152Z,9.12
2023-01-17T10:34:39.745Z,10.21
2023-01-17T10:37:22.956Z,8.89
2023-01-17T10:40:16.205Z,7.90
2023-01-17T10:43:09.201Z,7.14
2023-01-17T10:45:54.549Z,7.40
2023-01-17T10:48:42.485Z,9.49
2023-01-17T10:51:19.505Z,10.44
2023-01-17T10:54:15.154Z,9.25
2023-01-17T10:56:43.434Z,8.08
2023-01-17T10:59:32.108Z,7.44
2023-01-17T11:02:41.850Z,7.65
2023-01-17T11:08:18.025Z,10.01
2023-01-17T11:10:57.386Z,8.68
2023-01-17T11:13:38.201Z,7.78
2023-01-17T11:16:16.727Z,7.88
2023-01-17T11:19:27.889Z,9.91
2023-01-17T11:22:05.453Z,9.16
2023-01-17T11:24:47.274Z,8.22
2023-01-17T11:27:30.486Z,7.59
2023-01-17T11:30:15.967Z,7.76
2023-01-17T11:32:57.585Z,8.58
2023-01-17T11:35:29.391Z,9.58
2023-01-17T11:37:59.310Z,10.46
2023-01-17T11:40:37.578Z,11.28
2023-01-17T11:43:11.280Z,11.85
2023-01-17T11:49:50.635Z,12.35
2023-01-17T11:52:21.275Z,12.51
2023-01-17T11:54:50.916Z,12.58
2023-01-17T11:57:32.897Z,12.73
2023-01-17T12:00:23.404Z,13.07
2023-01-17T12:03:03.453Z,13.38
2023-01-17T12:05:48.360Z,13.56
2023-01-17T12:08:28.332Z,13.50
2023-01-17T12:10:59.106Z,13.61
2023-01-17T12:14:02.888Z,13.60
2023-01-17T12:16:49.369Z,13.44
2023-01-17T12:20:14.979Z,13.35
2023-01-17T12:22:52.908Z,12.64
2023-01-17T12:25:54.591Z,12.91
2023-01-17T12:28:38.243Z,13.28
2023-01-17T12:31:23.239Z,13.62
2023-01-17T12:33:56.576Z,13.74
2023-01-17T12:36:33.244Z,13.81
2023-01-17T12:39:08.051Z,13.92
2023-01-17T12:41:45.725Z,13.85
2023-01-17T12:44:17.534Z,14.14
2023-01-17T12:46:56.267Z,14.38
2023-01-17T12:49:49.160Z,14.53
2023-01-17T12:52:25.034Z,14.68
2023-01-17T12:55:02.817Z,14.50
2023-01-17T12:58:07.080Z,14.10
2023-01-17T13:00:39.101Z,14.16
2023-01-17T13:03:46.927Z,14.24
2023-01-17T13:06:25.071Z,14.06
2023-01-17T13:08:57.928Z,13.78
2023-01-17T13:11:46.079Z,13.41
2023-01-17T13:14:14.127Z,13.01
2023-01-17T13:17:13.141Z,12.66
2023-01-17T13:19:52.147Z,12.47
2023-01-17T13:22:24.117Z,12.56
2023-01-17T13:25:00.436Z,12.57
2023-01-17T13:27:40.396Z,12.58
2023-01-17T13:30:32.757Z,12.59
2023-01-17T13:33:13.142Z,12.89
2023-01-17T13:36:16.888Z,13.00
2023-01-17T13:38:57.677Z,13.09
2023-01-17T13:41:34.778Z,13.54
2023-01-17T13:44:21.663Z,13.87
2023-01-17T13:46:56.684Z,14.15
2023-01-17T13:49:31.678Z,14.06
2023-01-17T13:52:19.735Z,14.14
2023-01-17T13:54:54.933Z,14.23
2023-01-17T13:57:29.192Z,14.43
2023-01-17T14:00:10.522Z,14.93
2023-01-17T14:02:39.192Z,15.52
2023-01-17T14:05:11.625Z,15.63
2023-01-17T14:07:55.966Z,15.71
2023-01-17T14:10:30.606Z,15.83
2023-01-17T14:12:59.117Z,15.75
2023-01-17T14:15:28.820Z,15.07
2023-01-17T14:18:02.397Z,14.57
2023-01-17T14:20:49.961Z,13.73
2023-01-17T14:23:26.255Z,13.55
2023-01-17T14:25:58.120Z,13.22
2023-01-17T14:28:26.092Z,12.46
2023-01-17T14:30:56.486Z,11.73
2023-01-17T14:33:36.077Z,11.28
2023-01-17T14:36:07.834Z,11.20
2023-01-17T14:38:42.897Z,11.18
2023-01-17T14:41:19.326Z,10.87
2023-01-17T14:43:49.615Z,10.56
2023-01-17T14:46:28.491Z,10.16
2023-01-17T14:49:06.157Z,9.65
2023-01-17T14:51:35.532Z,9.16
2023-01-17T14:54:14.646Z,8.63
2023-01-17T14:56:42.534Z,8.11
2023-01-17T14:59:17.446Z,7.72
2023-01-17T15:02:06.702Z,7.36
2023-01-17T15:04:39.670Z,7.03
2023-01-17T15:07:15.939Z,6.75
2023-01-17T15:09:45.222Z,6.49
2023-01-17T15:12:16.493Z,6.26
2023-01-17T15:14:46.633Z,6.05
2023-01-17T15:17:24.823Z,5.83
2023-01-17T15:22:35.349Z,5.46
2023-01-17T15:25:03.764Z,5.32
2023-01-17T15:27:32.286Z,5.19
2023-01-17T15:30:02.437Z,5.07
2023-01-17T15:32:33.324Z,4.97
2023-01-17T15:35:03.000Z,4.86
2023-01-17T15:37:39.152Z,4.75
2023-01-17T15:40:26.167Z,4.63
2023-01-17T15:42:58.739Z,4.50
2023-01-17T15:45:32.554Z,4.38
2023-01-17T15:48:39.153Z,4.29
2023-01-17T15:51:09.405Z,4.17
2023-01-17T15:53:40.160Z,4.07
2023-01-17T15:56:26.019Z,3.98
2023-01-17T15:58:54.040Z,3.85
2023-01-17T16:01:26.977Z,3.73
2023-01-17T16:03:55.642Z,4.02
2023-01-17T16:06:45.391Z,6.22
2023-01-17T16:09:23.947Z,8.18
2023-01-17T16:11:51.844Z,9.12
2023-01-17T16:14:20.050Z,9.16
2023-01-17T16:16:54.298Z,7.84
2023-01-17T16:19:22.703Z,6.55
2023-01-17T16:21:51.621Z,5.63
2023-01-17T16:24:19.779Z,4.94
2023-01-17T16:26:47.692Z,4.41
2023-01-17T16:29:15.691Z,3.95
2023-01-17T16:31:43.538Z,3.57
2023-01-17T16:34:12.918Z,3.60
2023-01-17T16:36:40.946Z,5.47
2023-01-17T16:39:13.565Z,7.08
2023-01-17T16:41:41.610Z,7.56
2023-01-17T16:44:09.880Z,6.37
2023-01-17T16:46:38.729Z,5.09
2023-01-17T16:49:06.770Z,4.18
2023-01-17T16:51:35.008Z,3.85
2023-01-17T16:54:03.020Z,5.35
2023-01-17T16:56:31.248Z,6.74
2023-01-17T16:58:59.186Z,7.24
2023-01-17T17:01:27.360Z,6.16
2023-01-17T17:03:55.362Z,4.84
2023-01-17T17:06:23.342Z,3.95
2023-01-17T17:08:51.367Z,3.73
2023-01-17T17:11:22.860Z,5.10
2023-01-17T17:13:51.878Z,6.56
2023-01-17T17:16:24.624Z,6.81
2023-01-17T17:18:59.756Z,5.61
2023-01-17T17:21:28.947Z,4.50
2023-01-17T17:23:59.453Z,3.74
2023-01-17T17:26:31.406Z,3.88
2023-01-17T17:29:00.738Z,5.52
2023-01-17T17:31:55.388Z,6.12
2023-01-17T17:34:25.850Z,4.92
2023-01-17T17:36:55.676Z,3.96
2023-01-17T17:39:24.169Z,4.58
2023-01-17T17:41:52.261Z,6.18
2023-01-17T17:44:20.328Z,7.45
2023-01-17T17:46:49.703Z,7.76
2023-01-17T17:49:17.713Z,6.41
2023-01-17T17:51:45.699Z,5.11
2023-01-17T17:54:15.905Z,4.20
2023-01-17T17:56:47.553Z,3.56
2023-01-17T17:59:20.237Z,3.50
2023-01-17T18:01:48.746Z,5.17
2023-01-17T18:04:16.874Z,6.63
2023-01-17T18:06:45.008Z,7.00
2023-01-17T18:09:13.606Z,5.99
2023-01-17T18:11:43.284Z,4.90
2023-01-17T18:14:14.525Z,4.52
2023-01-17T18:16:44.927Z,5.91
2023-01-17T18:19:15.849Z,7.32
2023-01-17T18:21:43.870Z,7.15
2023-01-17T18:24:14.734Z,5.91
2023-01-17T18:26:51.167Z,5.01
2023-01-17T18:29:21.567Z,4.94
2023-01-17T18:31:51.051Z,6.83
2023-01-17T18:34:27.165Z,8.47
2023-01-17T18:36:58.029Z,8.97
2023-01-17T18:39:29.662Z,7.66
2023-01-17T18:42:09.102Z,6.49
2023-01-17T18:48:45.378Z,4.85
2023-01-17T18:51:16.720Z,4.53
2023-01-17T18:53:46.392Z,4.24
2023-01-17T18:56:18.198Z,4.35
2023-01-17T18:58:50.402Z,6.46
2023-01-17T19:01:20.988Z,8.44
2023-01-17T19:03:51.376Z,8.99
2023-01-17T19:06:25.960Z,7.60
2023-01-17T19:08:54.845Z,6.32
2023-01-17T19:11:23.976Z,5.49
2023-01-17T19:13:53.255Z,4.90
2023-01-17T19:16:29.594Z,4.45
2023-01-17T19:19:02.690Z,4.10
2023-01-17T19:21:31.825Z,4.26
2023-01-17T19:24:00.195Z,6.32
2023-01-17T19:26:28.818Z,8.15
2023-01-17T19:29:00.936Z,8.83
2023-01-17T19:31:30.466Z,7.70
2023-01-17T19:33:59.772Z,6.50
2023-01-17T19:36:33.856Z,5.66
2023-01-17T19:39:06.140Z,5.08
2023-01-17T19:41:36.330Z,4.64
2023-01-17T19:44:09.615Z,4.29
2023-01-17T19:46:38.186Z,4.43
2023-01-17T19:49:07.730Z,6.62
2023-01-17T19:51:36.353Z,8.49
2023-01-17T19:54:06.541Z,8.93
2023-01-17T19:56:35.175Z,7.63
2023-01-17T19:59:03.635Z,6.47
2023-01-17T20:01:33.723Z,5.70
2023-01-17T20:04:03.483Z,5.17
2023-01-17T20:06:34.644Z,4.80
2023-01-17T20:09:03.406Z,4.51
2023-01-17T20:11:31.947Z,4.26
2023-01-17T20:14:00.461Z,4.44
2023-01-17T20:16:31.504Z,6.44
2023-01-17T20:19:00.285Z,8.40
2023-01-17T20:21:29.613Z,9.08
2023-01-17T20:23:59.492Z,7.92
2023-01-17T20:26:36.379Z,6.68
2023-01-17T20:29:10.626Z,5.82
2023-01-17T20:31:41.174Z,5.28
2023-01-17T20:34:12.149Z,4.89
2023-01-17T20:36:43.730Z,4.58
2023-01-17T20:39:14.155Z,4.34
2023-01-17T20:41:44.721Z,4.73
2023-01-17T20:44:15.666Z,7.04
2023-01-17T20:46:44.601Z,8.88
2023-01-17T20:49:15.755Z,9.39
2023-01-17T20:51:45.292Z,8.13
2023-01-17T20:54:16.181Z,6.92
2023-01-17T20:56:47.293Z,6.04
2023-01-17T20:59:18.031Z,5.38
2023-01-17T21:01:46.491Z,5.32
2023-01-17T21:05:03.907Z,7.15
2023-01-17T21:07:32.187Z,8.78
2023-01-17T21:10:00.140Z,7.84
2023-01-17T21:12:28.130Z,6.63
2023-01-17T21:15:36.049Z,5.77
2023-01-17T21:18:04.000Z,5.05
2023-01-17T21:20:34.798Z,4.64
2023-01-17T21:23:02.732Z,4.79
2023-01-17T21:25:30.632Z,6.74
2023-01-17T21:27:58.944Z,8.33
2023-01-17T21:30:27.083Z,8.78
2023-01-17T21:32:55.099Z,7.65
2023-01-17T21:35:23.159Z,6.47
2023-01-17T21:37:51.543Z,5.61
2023-01-17T21:40:19.823Z,5.31
2023-01-17T21:42:48.451Z,6.79
2023-01-17T21:45:16.762Z,8.44
2023-01-17T21:47:44.989Z,8.99
2023-01-17T21:50:25.085Z,7.75
2023-01-17T21:53:03.654Z,6.34
2023-01-17T21:55:50.524Z,5.53
2023-01-17T21:58:37.520Z,5.57
2023-01-17T22:01:17.779Z,7.53
2023-01-17T22:03:49.543Z,8.62
2023-01-17T22:06:19.545Z,7.78
2023-01-17T22:08:47.773Z,6.56
2023-01-17T22:11:18.654Z,5.68
2023-01-17T22:13:46.746Z,5.58
2023-01-17T22:16:17.013Z,7.35
2023-01-17T22:18:45.891Z,8.77
2023-01-17T22:21:22.605Z,9.34
2023-01-17T22:23:56.522Z,8.13
2023-01-17T22:27:44.420Z,6.77
2023-01-17T22:30:13.193Z,5.75
2023-01-17T22:32:41.743Z,5.25
2023-01-17T22:35:09.721Z,5.31
2023-01-17T22:37:37.651Z,7.05
2023-01-17T22:40:06.158Z,8.60
2023-01-17T22:42:34.561Z,9.33
2023-01-17T22:45:02.553Z,8.31
2023-01-17T22:47:30.793Z,7.05
2023-01-17T22:49:58.988Z,6.22
2023-01-17T22:52:26.959Z,5.99
2023-01-17T22:54:54.913Z,7.56
2023-01-17T22:57:23.353Z,9.12
2023-01-17T22:59:51.389Z,9.61
2023-01-17T23:02:19.357Z,8.51
2023-01-17T23:04:49.052Z,7.37
2023-01-17T23:07:17.127Z,6.56
2023-01-17T23:09:45.014Z,5.99
2023-01-17T23:12:12.962Z,5.92
2023-01-17T23:14:59.469Z,7.43
2023-01-17T23:17:45.611Z,8.99
2023-01-17T23:20:13.535Z,9.99
2023-01-17T23:22:41.495Z,9.63
2023-01-17T23:25:12.075Z,8.23
2023-01-17T23:28:00.855Z,7.15
2023-01-17T23:30:34.609Z,6.28
2023-01-17T23:33:08.298Z,6.14
2023-01-17T23:35:41.707Z,7.86
2023-01-17T23:38:28.625Z,9.35
2023-01-17T23:41:20.003Z,9.64
2023-01-17T23:43:56.260Z,8.15
2023-01-17T23:46:25.716Z,6.98
2023-01-17T23:48:55.206Z,6.58
2023-01-17T23:51:23.348Z,7.99
2023-01-17T23:53:57.463Z,9.37
2023-01-17T23:56:25.515Z,9.76
2023-01-17T23:58:53.382Z,8.44
